Lone Rock, WI (53556)

6:35 AM CDT on March 26, 2017 (GMT -0500)
Artificer | | Change Station
Active Advisory: Special Statement Active Notice: Public Information Statement

Elev 1000 ft 43.13 °N, 90.29 °W | Updated 8 seconds ago

Overcast
Overcast
38.3 °F
Feels Like 36 °F
N
3.6
Wind Variable Wind from WSW
Gusts 5.8 mph

Today
High -- | Low -- °F
--% Chance of Precip.
Yesterday
High -- | Low -- °F
Precip. -- in
Pressure 29.89 in
Visibility 4.0 miles
Clouds Overcast 500 ft
Windchill 36 °F
Dew Point 38 °F
Humidity 99%
Rainfall 0.04 in
Snow Depth Not available.
6:52 AM 7:20 PM
Waning Crescent, 4% visible
METAR KLNR 261056Z AUTO 07007KT 4SM BR OVC005 04/03 A2989 RMK AO2 SLP121 T00440033
Pressure 29.89 in
Visibility 4.0 miles
Clouds Overcast 500 ft
Windchill 36 °F
Dew Point 38 °F
Humidity 99%
Rainfall 0.04 in
Snow Depth Not available.
6:52 AM 7:20 PM
Waning Crescent, 4% visible
METAR KLNR 261056Z AUTO 07007KT 4SM BR OVC005 04/03 A2989 RMK AO2 SLP121 T00440033

Get Your Daily Forecast Email!

Thanks for signing up!

Be on the lookout for a verification email in your inbox.

You'll start receiving severe weather alerts in your inbox..

×

10-Day Weather Forecast

Almanac

Astronomy

Mar. 26, 2017 Rise Set
Actual Time
Civil Twilight
Nautical Twilight
Astronomical Twilight
Moon
Length of Visible Light
Length of Day
Tomorrow will be .
, % of the Moon is Illuminated

Today's Extremes

State Highs State Lows

Community

WunderPhotos

Upload Photos

1,962,540 photos uploaded!

WunderBlog® & News

Nearby

Air Quality

  Air Quality AQ Index Pollutant
Not available.

Snow Depth

Station Depth Elevation

Earthquake Activity

City Distance Mag. Time & Date
Minimum magnitude displayed is 2.5.

Earthquake Activity

City Distance Mag. Time & Date
Minimum magnitude displayed is 2.5.

Coastal Water Temperatures

Place Temperature

Stations

Nearby Weather Stations

Station Location Temp. Windchill Dew Point Humidity Wind Precip. Elev Updated Type
                   

Watches & Warnings

Special Statement
Issued: 5:32 AM CDT Mar. 26, 2017 – National Weather Service

... Some fog for early morning travelers...

Fog has developed across parts of the region early this morning.
While visibility has been reduced to 1 to 2 miles in many areas,
there are some pockets of thicker fog with visibility reduced to
1/2 mile.

If traveling early this morning, be prepared for rapidly reduced
visibilities. Take it slow and exercise caution.